createdAt,value
2023-04-01T00:01:17.182Z,5.88
2023-04-01T00:03:44.091Z,5.91
2023-04-01T00:06:16.547Z,5.96
2023-04-01T00:08:43.216Z,5.91
2023-04-01T00:11:09.746Z,5.95
2023-04-01T00:13:36.810Z,6.03
2023-04-01T00:16:13.480Z,5.96
2023-04-01T00:18:48.362Z,5.84
2023-04-01T00:21:15.527Z,5.84
2023-04-01T00:23:42.602Z,5.82
2023-04-01T00:26:09.130Z,5.85
2023-04-01T00:28:37.188Z,5.84
2023-04-01T00:31:09.576Z,5.85
2023-04-01T00:33:36.648Z,5.94
2023-04-01T00:36:22.997Z,5.82
2023-04-01T00:38:51.288Z,5.78
2023-04-01T00:41:18.844Z,5.65
2023-04-01T00:43:48.229Z,5.65
2023-04-01T00:46:14.957Z,5.66
2023-04-01T00:48:48.680Z,5.62
2023-04-01T00:51:19.595Z,5.61
2023-04-01T00:53:49.465Z,5.67
2023-04-01T00:56:23.272Z,5.76
2023-04-01T00:58:55.686Z,5.77
2023-04-01T01:01:24.943Z,5.87
2023-04-01T01:03:51.688Z,5.87
2023-04-01T01:10:13.757Z,5.79
2023-04-01T01:13:16.210Z,5.76
2023-04-01T01:15:48.627Z,5.70
2023-04-01T01:18:23.877Z,5.77
2023-04-01T01:21:21.046Z,5.80
2023-04-01T01:24:14.457Z,5.86
2023-04-01T01:26:59.393Z,5.90
2023-04-01T01:29:37.644Z,5.90
2023-04-01T01:32:16.640Z,5.86
2023-04-01T01:35:16.552Z,5.86
2023-04-01T01:37:46.290Z,5.93
2023-04-01T01:40:14.921Z,5.95
2023-04-01T01:42:46.435Z,5.99
2023-04-01T01:45:15.486Z,6.00
2023-04-01T01:47:43.760Z,5.92
2023-04-01T01:50:11.033Z,5.93
2023-04-01T01:52:37.491Z,5.92
2023-04-01T01:55:04.540Z,5.97
2023-04-01T01:57:35.521Z,5.97
2023-04-01T02:00:13.859Z,5.95
2023-04-01T02:02:45.037Z,5.93
2023-04-01T02:05:16.626Z,5.92
2023-04-01T02:07:48.079Z,5.89
2023-04-01T02:10:15.408Z,5.86
2023-04-01T02:12:45.774Z,5.89
2023-04-01T02:15:15.917Z,5.86
2023-04-01T02:17:46.331Z,5.88
2023-04-01T02:20:20.730Z,5.88
2023-04-01T02:22:56.912Z,5.82
2023-04-01T02:25:32.326Z,5.84
2023-04-01T02:28:00.032Z,5.87
2023-04-01T02:30:29.603Z,5.87
2023-04-01T02:32:58.193Z,5.85
2023-04-01T02:35:26.068Z,5.79
2023-04-01T02:37:54.721Z,5.80
2023-04-01T02:40:21.515Z,5.78
2023-04-01T02:42:48.358Z,5.73
2023-04-01T02:45:15.735Z,5.73
2023-04-01T02:47:42.315Z,5.70
2023-04-01T02:50:10.124Z,5.71
2023-04-01T02:52:36.845Z,5.75
2023-04-01T02:55:04.377Z,5.81
2023-04-01T02:57:31.218Z,5.81
2023-04-01T02:59:57.642Z,5.79
2023-04-01T03:02:24.286Z,5.80
2023-04-01T03:04:50.793Z,5.84
2023-04-01T03:07:17.291Z,5.78
2023-04-01T03:09:43.824Z,5.80
2023-04-01T03:12:10.284Z,5.72
2023-04-01T03:14:37.021Z,5.83
2023-04-01T03:17:03.484Z,5.86
2023-04-01T03:19:29.998Z,5.87
2023-04-01T03:21:56.448Z,5.81
2023-04-01T03:24:22.960Z,5.80
2023-04-01T03:26:49.513Z,5.88
2023-04-01T03:29:16.909Z,5.90
2023-04-01T03:31:43.838Z,5.87
2023-04-01T03:34:10.549Z,5.81
2023-04-01T03:36:37.366Z,5.84
2023-04-01T03:39:04.732Z,5.75
2023-04-01T03:41:31.785Z,5.84
2023-04-01T03:43:58.314Z,5.87
2023-04-01T03:46:25.401Z,5.85
2023-04-01T03:48:51.882Z,5.82
2023-04-01T03:51:18.655Z,5.83
2023-04-01T03:53:45.119Z,5.82
2023-04-01T03:56:12.104Z,5.85
2023-04-01T03:58:39.801Z,5.70
2023-04-01T04:01:24.322Z,5.82
2023-04-01T04:03:51.957Z,5.84
2023-04-01T04:06:19.721Z,5.74
2023-04-01T04:08:46.300Z,5.89
2023-04-01T04:11:12.878Z,5.91
2023-04-01T04:13:39.433Z,5.89
2023-04-01T04:16:06.288Z,5.91
2023-04-01T04:18:32.865Z,5.79
2023-04-01T04:20:59.587Z,5.83
2023-04-01T04:23:26.350Z,5.88
2023-04-01T04:26:05.080Z,5.85
2023-04-01T04:28:32.348Z,5.92
2023-04-01T04:30:58.886Z,5.80
2023-04-01T04:33:26.050Z,5.84
2023-04-01T04:35:55.719Z,5.91
2023-04-01T04:38:22.698Z,5.92
2023-04-01T04:40:49.299Z,5.84
2023-04-01T04:43:17.025Z,5.82
2023-04-01T04:45:44.131Z,5.85
2023-04-01T04:48:11.936Z,5.87
2023-04-01T04:50:38.553Z,5.84
2023-04-01T04:53:05.040Z,5.89
2023-04-01T04:55:31.738Z,5.88
2023-04-01T04:57:58.415Z,5.91
2023-04-01T05:00:25.081Z,5.87
2023-04-01T05:02:51.682Z,5.89
2023-04-01T05:05:18.254Z,5.89
2023-04-01T05:07:44.735Z,5.87
2023-04-01T05:10:11.357Z,5.87
2023-04-01T05:12:39.761Z,5.88
2023-04-01T05:15:07.278Z,5.79
2023-04-01T05:17:33.822Z,5.74
2023-04-01T05:20:00.325Z,5.88
2023-04-01T05:22:27.060Z,5.91
2023-04-01T05:24:53.551Z,5.94
2023-04-01T05:27:20.161Z,5.85
2023-04-01T05:29:46.658Z,5.85
2023-04-01T05:32:13.188Z,5.93
2023-04-01T05:34:39.648Z,5.84
2023-04-01T05:37:06.186Z,5.92
2023-04-01T05:39:32.780Z,5.88
2023-04-01T05:41:59.278Z,5.89
2023-04-01T05:44:25.696Z,5.80
2023-04-01T05:46:52.176Z,5.79
2023-04-01T05:49:18.761Z,5.81
2023-04-01T05:51:45.328Z,5.89
2023-04-01T05:54:12.095Z,5.76
2023-04-01T05:56:38.598Z,5.70
2023-04-01T05:59:05.160Z,5.72
2023-04-01T06:01:31.667Z,5.65
2023-04-01T06:03:58.453Z,5.71
2023-04-01T06:06:28.760Z,5.67
2023-04-01T06:08:57.625Z,5.64
2023-04-01T06:11:27.260Z,5.80
2023-04-01T06:14:29.328Z,5.87
2023-04-01T06:16:55.852Z,5.79
2023-04-01T06:19:59.255Z,5.78
2023-04-01T06:23:07.219Z,5.89
2023-04-01T06:25:44.074Z,5.82
2023-04-01T06:28:32.399Z,5.83
2023-04-01T06:31:17.765Z,5.87
2023-04-01T06:34:02.746Z,5.94
2023-04-01T06:36:44.866Z,6.04
2023-04-01T06:39:29.969Z,6.18
2023-04-01T06:42:30.272Z,6.07
2023-04-01T06:45:27.380Z,6.18
2023-04-01T06:48:21.474Z,6.24
2023-04-01T06:51:18.095Z,6.36
2023-04-01T06:54:13.561Z,6.30
2023-04-01T06:56:43.992Z,6.38
2023-04-01T06:59:21.995Z,6.48
2023-04-01T07:02:13.956Z,6.49
2023-04-01T07:04:44.188Z,6.56
2023-04-01T07:07:22.936Z,6.79
2023-04-01T07:09:53.811Z,6.92
2023-04-01T07:12:32.609Z,7.08
2023-04-01T07:15:06.603Z,7.18
2023-04-01T07:17:37.680Z,7.21
2023-04-01T07:20:21.529Z,7.31
2023-04-01T07:22:55.938Z,7.40
2023-04-01T07:25:26.669Z,7.42
2023-04-01T07:28:06.182Z,7.66
2023-04-01T07:31:17.838Z,7.79
2023-04-01T07:34:13.317Z,7.88
2023-04-01T07:36:46.176Z,7.80
2023-04-01T07:39:27.554Z,7.76
2023-04-01T07:42:22.136Z,7.85
2023-04-01T07:44:56.041Z,7.76
2023-04-01T07:47:50.557Z,7.89
2023-04-01T07:50:42.894Z,8.08
2023-04-01T07:53:15.830Z,8.30
2023-04-01T07:56:00.962Z,8.42
2023-04-01T08:20:29.612Z,8.58
2023-04-01T08:23:05.659Z,8.40
2023-04-01T08:25:35.265Z,7.97
2023-04-01T08:28:16.559Z,7.95
2023-04-01T08:30:58.738Z,7.97
2023-04-01T08:33:28.220Z,7.94
2023-04-01T08:36:00.296Z,7.83
2023-04-01T08:38:45.363Z,7.73
2023-04-01T08:41:40.317Z,7.88
2023-04-01T08:44:44.337Z,7.88
2023-04-01T08:47:39.237Z,7.86
2023-04-01T08:50:34.912Z,7.94
2023-04-01T08:53:46.550Z,8.01
2023-04-01T08:56:21.608Z,8.00
2023-04-01T08:59:28.460Z,7.96
2023-04-01T09:02:28.145Z,7.57
2023-04-01T09:05:33.653Z,7.49
2023-04-01T09:08:45.797Z,7.21
2023-04-01T09:11:29.170Z,6.84
2023-04-01T09:14:04.723Z,6.61
2023-04-01T13:55:50.951Z,3.49
2023-04-01T13:58:37.154Z,3.61
2023-04-01T14:01:13.950Z,3.61
2023-04-01T14:04:09.644Z,3.41
2023-04-01T14:07:15.718Z,3.38
2023-04-01T14:10:14.674Z,3.49
2023-04-01T14:13:10.400Z,3.39
2023-04-01T14:15:46.745Z,3.52
2023-04-01T14:18:31.590Z,3.47
2023-04-01T14:21:01.015Z,3.47
2023-04-01T14:23:47.963Z,3.35
2023-04-01T14:26:42.986Z,3.13
2023-04-01T14:29:26.164Z,3.27
2023-04-01T14:32:09.098Z,3.23
2023-04-01T14:35:06.458Z,3.23
2023-04-01T14:37:56.973Z,3.20
2023-04-01T14:40:35.800Z,3.08
2023-04-01T14:43:12.523Z,3.10
2023-04-01T14:46:09.763Z,3.00
2023-04-01T14:48:58.518Z,2.99
2023-04-01T14:51:40.316Z,3.09
2023-04-01T14:54:14.411Z,3.10
2023-04-01T14:56:45.437Z,3.09
2023-04-01T14:59:27.070Z,2.94
2023-04-01T15:02:03.404Z,3.05
2023-04-01T15:04:45.067Z,2.95
2023-04-01T15:07:45.032Z,3.05
2023-04-01T15:10:20.706Z,3.00
2023-04-01T15:13:06.073Z,2.99
2023-04-01T15:15:51.453Z,3.07
2023-04-01T15:18:55.314Z,2.99
2023-04-01T15:21:34.927Z,2.96
2023-04-01T15:24:16.013Z,2.95
2023-04-01T15:27:14.983Z,2.96
2023-04-01T15:30:17.152Z,2.98
2023-04-01T15:32:46.532Z,2.83
2023-04-01T15:35:53.807Z,2.90
2023-04-01T15:38:37.357Z,2.87
2023-04-01T15:41:16.830Z,2.97
2023-04-01T15:43:49.761Z,2.72
2023-04-01T15:46:42.569Z,2.91
2023-04-01T15:49:18.245Z,3.04
2023-04-01T15:52:06.928Z,3.03
2023-04-01T15:55:06.126Z,2.99
2023-04-01T15:57:53.692Z,2.85
2023-04-01T16:00:27.370Z,2.85
2023-04-01T16:03:28.462Z,2.98
2023-04-01T16:06:09.885Z,3.01
2023-04-01T16:08:48.058Z,2.90
2023-04-01T16:11:33.595Z,2.84
2023-04-01T16:14:13.922Z,2.90
2023-04-01T16:16:47.367Z,2.95
2023-04-01T16:19:32.158Z,2.83
2023-04-01T16:22:27.903Z,2.74
2023-04-01T16:25:25.344Z,2.62
2023-04-01T16:28:17.780Z,2.56
2023-04-01T16:30:56.561Z,2.60
2023-04-01T16:33:36.553Z,2.52
2023-04-01T16:36:12.375Z,2.46
2023-04-01T16:39:08.680Z,2.43
2023-04-01T16:41:43.110Z,2.37
2023-04-01T16:44:19.084Z,2.42
2023-04-01T16:46:51.011Z,2.34
2023-04-01T16:49:50.634Z,2.07
2023-04-01T21:07:55.434Z,-0.33
2023-04-01T21:10:36.349Z,-0.33
2023-04-01T21:13:20.875Z,-0.38
2023-04-01T21:16:09.739Z,-0.55
2023-04-01T21:18:56.275Z,-0.46
2023-04-01T21:21:44.248Z,-0.44
2023-04-01T21:24:13.479Z,-0.42
2023-04-01T21:27:09.665Z,-0.42
2023-04-01T21:29:57.699Z,-0.51
2023-04-01T21:32:55.274Z,-0.55
2023-04-01T21:35:32.144Z,-0.50
2023-04-01T21:38:23.341Z,-0.62
2023-04-01T21:40:54.500Z,-0.55
2023-04-01T21:43:32.053Z,-0.47
2023-04-01T21:46:10.801Z,-0.49
2023-04-01T21:49:19.992Z,-0.38
2023-04-01T21:52:18.707Z,-0.59
2023-04-01T21:55:10.068Z,-0.60
2023-04-01T21:57:58.316Z,-0.72
2023-04-01T22:00:32.941Z,-0.64
2023-04-01T22:03:26.044Z,-0.79
2023-04-01T22:06:03.057Z,-0.79
2023-04-01T22:08:48.238Z,-0.70
2023-04-01T22:11:50.746Z,-0.66
2023-04-01T22:14:49.017Z,-0.61
2023-04-01T22:17:28.069Z,-0.71
2023-04-01T22:20:06.074Z,-0.67
2023-04-01T22:22:39.441Z,-0.61
2023-04-01T22:25:24.315Z,-0.60
2023-04-01T22:27:58.915Z,-0.75
2023-04-01T22:30:31.901Z,-0.74
2023-04-01T22:33:01.508Z,-0.68
2023-04-01T22:36:03.420Z,-0.63
2023-04-01T22:38:48.659Z,-0.49
2023-04-01T22:41:18.955Z,-0.53
2023-04-01T22:43:47.051Z,-0.46
2023-04-01T22:46:54.310Z,-0.43
2023-04-01T22:49:52.463Z,-0.47
2023-04-01T22:52:42.907Z,-0.49
2023-04-01T22:55:23.131Z,-0.52
2023-04-01T22:58:33.794Z,-0.60
2023-04-01T23:01:06.664Z,-0.53
2023-04-01T23:03:37.138Z,-0.63
2023-04-01T23:06:05.787Z,-0.65
2023-04-01T23:08:41.800Z,-0.69
2023-04-01T23:11:14.721Z,-0.55
2023-04-01T23:13:49.366Z,-0.63
2023-04-01T23:16:19.576Z,-0.56
2023-04-01T23:18:56.599Z,-0.53
2023-04-01T23:21:33.255Z,-0.65
2023-04-01T23:24:14.891Z,-0.71
2023-04-01T23:26:47.351Z,-0.75
2023-04-01T23:29:18.874Z,-0.71
2023-04-01T23:31:49.456Z,-0.64
2023-04-01T23:34:28.447Z,-0.57
2023-04-01T23:36:58.906Z,-0.62
2023-04-01T23:39:31.227Z,-0.64
2023-04-01T23:42:23.417Z,-0.59
2023-04-01T23:44:53.032Z,-0.51
2023-04-01T23:47:34.935Z,-0.54
2023-04-01T23:50:11.810Z,-0.64
2023-04-01T23:52:44.332Z,-0.64
2023-04-01T23:55:15.694Z,-0.66
2023-04-01T23:57:42.385Z,-0.67
